Time;durP1;ratioP1;P1;durP2;ratioP2;P2;SDS_P1;SDS_P2;PMS_P1;PMS_P2;Temp;Humidity;BMP_temperature;BMP_pressure;BME280_temperature;BME280_humidity;BME280_pressure;Samples;Min_cycle;Max_cycle;Signal;HPM_P1;HPM_P2
2022/04/22 00:02:04;;;;;;;11.57;7.15;;;13.60;96.00;;;;;;5009901;28;20026;-68
2022/04/22 00:04:29;;;;;;;9.50;6.80;;;13.60;95.90;;;;;;5009515;28;20105;-68
2022/04/22 00:06:55;;;;;;;8.02;6.03;;;13.60;95.90;;;;;;5007188;28;20038;-68
2022/04/22 00:09:21;;;;;;;10.80;7.30;;;13.50;96.00;;;;;;5009877;28;20026;-68
2022/04/22 00:11:46;;;;;;;9.27;7.28;;;13.60;96.30;;;;;;5009926;28;20034;-69
2022/04/22 00:14:12;;;;;;;10.48;6.97;;;13.40;96.40;;;;;;5009789;28;20483;-68
2022/04/22 00:16:38;;;;;;;12.18;8.25;;;13.40;96.40;;;;;;5008294;28;20065;-68
2022/04/22 00:19:03;;;;;;;8.93;7.22;;;13.30;96.60;;;;;;5009801;28;20029;-68
2022/04/22 00:21:29;;;;;;;11.80;8.02;;;13.30;96.30;;;;;;5009560;28;20055;-68
2022/04/22 00:23:55;;;;;;;8.98;7.47;;;13.40;97.00;;;;;;5006803;28;20014;-68
2022/04/22 00:26:21;;;;;;;12.15;8.25;;;13.30;96.50;;;;;;5009240;28;20034;-68
2022/04/22 00:28:48;;;;;;;14.75;9.07;;;13.20;97.30;;;;;;5009695;28;20022;-68
2022/04/22 00:31:14;;;;;;;10.68;8.30;;;13.20;97.50;;;;;;5010065;28;20096;-68
2022/04/22 00:33:41;;;;;;;10.52;8.77;;;13.10;97.40;;;;;;5009892;28;20057;-68
2022/04/22 00:36:07;;;;;;;11.23;8.82;;;13.20;97.20;;;;;;5010212;28;20462;-68
2022/04/22 00:38:34;;;;;;;13.77;8.88;;;13.00;98.10;;;;;;5008219;28;20022;-68
2022/04/22 00:41:00;;;;;;;14.27;9.00;;;13.10;97.40;;;;;;5009600;28;20030;-68
2022/04/22 00:43:26;;;;;;;10.45;8.80;;;13.20;97.60;;;;;;5009713;28;20025;-69
2022/04/22 00:45:54;;;;;;;11.75;9.48;;;13.00;97.90;;;;;;5009489;28;20528;-68
2022/04/22 00:48:21;;;;;;;12.25;9.38;;;13.00;98.30;;;;;;4991788;28;20406;-68
2022/04/22 00:50:48;;;;;;;11.45;9.70;;;12.90;98.00;;;;;;5009855;28;20037;-69
2022/04/22 00:53:14;;;;;;;15.40;10.02;;;12.90;97.80;;;;;;5009814;28;20109;-69
2022/04/22 00:55:44;;;;;;;15.27;9.88;;;12.90;98.70;;;;;;4992150;28;20037;-69
2022/04/22 00:58:11;;;;;;;14.27;11.80;;;12.90;98.70;;;;;;5013633;28;20075;-68
2022/04/22 01:00:38;;;;;;;11.80;10.55;;;12.90;98.60;;;;;;5033683;28;20106;-68
2022/04/22 01:03:05;;;;;;;15.45;10.75;;;12.90;98.50;;;;;;5009758;28;20428;-68
2022/04/22 01:11:01;;;;;;;15.38;11.07;;;12.90;99.00;;;;;;5009212;28;20077;-68
2022/04/22 01:13:29;;;;;;;15.32;11.07;;;13.00;98.50;;;;;;5008774;28;20470;-68
2022/04/22 01:15:55;;;;;;;12.75;10.77;;;12.90;98.50;;;;;;5007857;28;20034;-68
2022/04/22 01:18:21;;;;;;;13.10;10.80;;;12.90;99.00;;;;;;5008992;28;20066;-68
2022/04/22 01:20:47;;;;;;;17.02;11.15;;;13.00;98.60;;;;;;5009453;28;20056;-68
2022/04/22 01:23:13;;;;;;;18.80;12.70;;;12.90;99.10;;;;;;5008311;28;20083;-68
2022/04/22 01:25:39;;;;;;;14.43;11.48;;;13.00;98.30;;;;;;5008870;28;20030;-68
2022/04/22 01:28:05;;;;;;;16.30;11.52;;;13.00;98.70;;;;;;5009224;28;20363;-68
2022/04/22 01:30:31;;;;;;;13.93;11.15;;;12.80;98.60;;;;;;5009349;28;20018;-68
2022/04/22 01:32:57;;;;;;;16.13;12.02;;;12.80;99.40;;;;;;5009207;28;20523;-68
2022/04/22 01:35:24;;;;;;;15.60;11.70;;;12.80;99.40;;;;;;5008872;28;20101;-68
2022/04/22 01:37:50;;;;;;;15.48;12.30;;;12.80;99.10;;;;;;5012510;28;20022;-68
2022/04/22 01:40:17;;;;;;;14.95;11.77;;;12.70;99.60;;;;;;5012455;28;20042;-68
2022/04/22 01:42:43;;;;;;;14.10;11.88;;;12.60;99.90;;;;;;5012738;28;20362;-68
2022/04/22 01:45:11;;;;;;;15.85;11.80;;;12.70;99.60;;;;;;5011087;28;20056;-68
2022/04/22 01:47:37;;;;;;;16.27;12.52;;;12.50;99.90;;;;;;5011349;28;20030;-68
2022/04/22 01:50:03;;;;;;;17.83;12.68;;;12.60;99.60;;;;;;5012572;28;20747;-68
2022/04/22 01:52:29;;;;;;;20.08;14.55;;;12.60;99.60;;;;;;5012624;28;20494;-68
2022/04/22 01:54:56;;;;;;;15.25;12.80;;;12.50;99.40;;;;;;5012204;28;20026;-68
2022/04/22 01:57:22;;;;;;;20.90;14.02;;;12.40;99.90;;;;;;5012724;28;20030;-67
2022/04/22 01:59:49;;;;;;;19.77;14.65;;;12.40;99.90;;;;;;4997562;28;20018;-68
2022/04/22 02:02:16;;;;;;;18.08;14.05;;;12.30;99.90;;;;;;4992573;28;20505;-68
2022/04/22 02:04:43;;;;;;;22.08;14.13;;;12.30;99.90;;;;;;5007335;28;20549;-68
2022/04/22 02:07:09;;;;;;;19.90;14.07;;;12.40;99.90;;;;;;5012359;28;20040;-68
2022/04/22 02:09:35;;;;;;;19.95;14.43;;;12.40;99.70;;;;;;5011467;28;20026;-68
2022/04/22 02:12:01;;;;;;;17.17;13.15;;;12.30;99.90;;;;;;5012532;28;20041;-68
2022/04/22 02:14:27;;;;;;;18.00;14.02;;;12.30;99.90;;;;;;5012301;28;20032;-68
2022/04/22 02:16:53;;;;;;;22.60;13.73;;;12.40;99.90;;;;;;5012140;28;20022;-68
2022/04/22 02:19:19;;;;;;;19.88;13.65;;;12.40;99.90;;;;;;5002831;28;20034;-68
2022/04/22 02:21:45;;;;;;;20.77;14.77;;;12.30;99.90;;;;;;5011509;28;20030;-68
2022/04/22 02:24:11;;;;;;;17.92;13.50;;;12.30;99.90;;;;;;5011748;28;20497;-68
2022/04/22 02:29:22;;;;;;;16.30;13.05;;;12.20;99.90;;;;;;5012034;28;20114;-68
2022/04/22 02:31:52;;;;;;;20.73;14.25;;;12.10;99.90;;;;;;5011263;28;20101;-68
2022/04/22 02:34:19;;;;;;;22.23;15.18;;;12.10;99.90;;;;;;5011489;28;20030;-68
2022/04/22 02:36:45;;;;;;;16.30;13.57;;;12.00;99.90;;;;;;5011984;28;20024;-68
2022/04/22 02:39:11;;;;;;;17.63;14.05;;;11.90;99.90;;;;;;5011656;28;20026;-68
2022/04/22 02:47:05;;;;;;;16.23;13.32;;;11.80;99.90;;;;;;5011430;28;20108;-68
2022/04/22 02:49:31;;;;;;;17.30;13.85;;;12.00;99.90;;;;;;5004695;28;20036;-68
2022/04/22 02:51:57;;;;;;;18.38;13.63;;;12.00;99.90;;;;;;5017422;28;20034;-68
2022/04/22 02:54:22;;;;;;;18.73;13.65;;;11.90;99.90;;;;;;5009534;28;20037;-68
2022/04/22 02:56:52;;;;;;;21.55;14.57;;;11.90;99.90;;;;;;5011521;28;20105;-68
2022/04/22 02:59:19;;;;;;;20.85;13.45;;;12.00;99.90;;;;;;4983722;28;20026;-68
2022/04/22 03:01:45;;;;;;;18.42;13.55;;;11.90;99.90;;;;;;4991352;28;20034;-68
2022/04/22 03:04:11;;;;;;;17.98;13.32;;;12.00;99.90;;;;;;4991766;28;20027;-68
2022/04/22 03:06:37;;;;;;;17.17;12.10;;;11.90;99.90;;;;;;4991718;28;20080;-68
2022/04/22 03:09:03;;;;;;;17.17;12.60;;;12.00;99.90;;;;;;5010052;28;20034;-68
2022/04/22 03:11:30;;;;;;;19.95;14.50;;;12.00;99.90;;;;;;5011267;28;20095;-68
2022/04/22 03:13:55;;;;;;;17.95;13.57;;;11.90;99.90;;;;;;5008826;28;20049;-68
2022/04/22 03:16:25;;;;;;;19.00;14.27;;;12.00;99.90;;;;;;4991649;28;20076;-68
2022/04/22 03:18:51;;;;;;;15.90;13.35;;;12.00;99.90;;;;;;4993161;28;20015;-68
2022/04/22 03:21:17;;;;;;;16.95;12.85;;;12.10;99.90;;;;;;5010939;28;20718;-68
2022/04/22 03:23:43;;;;;;;17.83;13.43;;;11.90;99.90;;;;;;5010171;28;20554;-68
2022/04/22 03:26:08;;;;;;;18.92;14.00;;;12.00;99.90;;;;;;5010658;28;20034;-68
2022/04/22 03:28:34;;;;;;;18.58;13.15;;;12.00;99.90;;;;;;5010466;28;20481;-68
2022/04/22 03:31:00;;;;;;;20.67;13.48;;;11.90;99.90;;;;;;5011092;28;20025;-68
2022/04/22 03:33:26;;;;;;;20.25;14.30;;;11.90;99.90;;;;;;5011350;28;20112;-68
2022/04/22 03:35:51;;;;;;;20.27;14.23;;;11.80;99.90;;;;;;5010955;28;20542;-68
2022/04/22 03:38:21;;;;;;;18.77;14.63;;;11.80;99.90;;;;;;5010921;28;20478;-68
2022/04/22 03:40:51;;;;;;;19.50;14.68;;;11.90;99.90;;;;;;5010789;28;20045;-68
2022/04/22 03:43:18;;;;;;;21.25;15.70;;;11.90;99.90;;;;;;5010848;28;20058;-68
2022/04/22 03:45:44;;;;;;;19.33;13.15;;;11.90;99.90;;;;;;5011061;28;20132;-68
2022/04/22 03:48:13;;;;;;;22.40;14.50;;;11.90;99.90;;;;;;5008427;28;20549;-68
2022/04/22 03:50:39;;;;;;;19.02;13.68;;;11.90;99.90;;;;;;5009977;28;20098;-68
2022/04/22 03:53:06;;;;;;;18.13;13.38;;;11.80;99.90;;;;;;5010411;28;20026;-68
2022/04/22 03:55:33;;;;;;;25.70;15.32;;;11.80;99.90;;;;;;5010406;28;20028;-68
2022/04/22 03:58:11;;;;;;;20.40;14.77;;;11.70;99.90;;;;;;5010825;28;20030;-68
2022/04/22 04:00:51;;;;;;;21.88;14.95;;;11.70;99.90;;;;;;4990469;28;20037;-68
2022/04/22 04:03:21;;;;;;;20.75;15.30;;;11.60;99.90;;;;;;4992268;28;20437;-68
2022/04/22 04:05:51;;;;;;;17.90;14.43;;;11.70;99.90;;;;;;4991343;28;20023;-68
2022/04/22 04:08:24;;;;;;;19.27;14.45;;;11.70;99.90;;;;;;4991891;28;20042;-68
2022/04/22 04:16:23;;;;;;;21.80;15.75;;;11.50;99.90;;;;;;4991737;28;20444;-68
2022/04/22 04:18:48;;;;;;;22.75;15.93;;;11.60;99.90;;;;;;5009341;28;20021;-67
2022/04/22 04:23:59;;;;;;;20.40;16.20;;;11.40;99.90;;;;;;5009938;28;20036;-68
2022/04/22 04:26:26;;;;;;;23.63;15.95;;;11.40;99.90;;;;;;5011024;28;20109;-68
2022/04/22 04:28:53;;;;;;;21.58;15.88;;;11.30;99.90;;;;;;5010391;28;20053;-68
2022/04/22 04:31:20;;;;;;;20.17;15.25;;;11.20;99.90;;;;;;5010187;28;20026;-68
2022/04/22 04:33:46;;;;;;;25.08;18.35;;;11.20;99.90;;;;;;5011079;28;20088;-68
2022/04/22 04:36:12;;;;;;;22.65;16.27;;;11.30;99.90;;;;;;5009725;28;20032;-68
2022/04/22 04:38:43;;;;;;;22.23;15.75;;;11.30;99.90;;;;;;5009460;28;20367;-68
2022/04/22 04:41:10;;;;;;;24.10;16.27;;;11.30;99.90;;;;;;5010088;28;20390;-68
2022/04/22 04:43:38;;;;;;;25.42;17.20;;;11.40;99.90;;;;;;5010877;28;20030;-68
2022/04/22 04:46:04;;;;;;;23.13;16.48;;;11.40;99.90;;;;;;5009587;28;20026;-68
2022/04/22 04:48:29;;;;;;;25.67;17.17;;;11.30;99.90;;;;;;5008164;28;20030;-68
2022/04/22 04:50:55;;;;;;;22.40;17.35;;;11.40;99.90;;;;;;4999483;28;20024;-68
2022/04/22 04:53:25;;;;;;;22.27;16.50;;;11.40;99.90;;;;;;5008455;28;20122;-68
2022/04/22 04:55:52;;;;;;;21.48;15.75;;;11.40;99.90;;;;;;5007291;28;20025;-68
2022/04/22 04:58:19;;;;;;;23.02;15.25;;;11.50;99.90;;;;;;5009703;28;20034;-68
2022/04/22 05:00:45;;;;;;;23.73;16.85;;;11.60;99.90;;;;;;4988812;28;21591;-68
2022/04/22 05:03:12;;;;;;;20.85;15.40;;;11.60;99.90;;;;;;5000199;28;20075;-68
2022/04/22 05:05:38;;;;;;;21.45;15.93;;;11.60;99.90;;;;;;5007024;28;20021;-68
2022/04/22 05:08:05;;;;;;;23.77;16.50;;;11.50;99.90;;;;;;5008191;28;20037;-68
2022/04/22 05:10:32;;;;;;;23.90;16.02;;;11.60;99.90;;;;;;5008769;28;20463;-68
2022/04/22 05:12:59;;;;;;;22.60;16.38;;;11.60;99.90;;;;;;5009873;28;20074;-68
2022/04/22 05:15:26;;;;;;;21.60;16.77;;;11.60;99.90;;;;;;5008482;28;20026;-68
2022/04/22 05:17:54;;;;;;;21.17;16.08;;;11.60;99.90;;;;;;5004842;28;20114;-68
2022/04/22 05:20:22;;;;;;;24.15;16.08;;;11.70;99.90;;;;;;4998200;28;20038;-68
2022/04/22 05:22:48;;;;;;;24.25;16.70;;;11.70;99.90;;;;;;5009561;28;20029;-70
2022/04/22 05:25:15;;;;;;;25.15;16.85;;;11.70;99.90;;;;;;5003971;28;20027;-67
2022/04/22 05:27:42;;;;;;;22.10;17.00;;;11.70;99.90;;;;;;5004632;28;20497;-67
2022/04/22 05:32:53;;;;;;;23.50;17.80;;;11.70;99.90;;;;;;4989571;28;20065;-67
2022/04/22 05:35:22;;;;;;;24.77;18.23;;;11.70;99.90;;;;;;4990891;28;20058;-70
2022/04/22 05:37:51;;;;;;;29.17;19.67;;;11.60;99.90;;;;;;4994776;28;20105;-68
2022/04/22 05:40:20;;;;;;;24.77;17.98;;;11.60;99.90;;;;;;5010110;28;20074;-68
2022/04/22 05:42:46;;;;;;;28.52;18.65;;;11.70;99.90;;;;;;5009268;28;20034;-70
2022/04/22 05:45:13;;;;;;;28.00;18.17;;;11.70;99.90;;;;;;5007963;28;20474;-67
2022/04/22 05:47:40;;;;;;;28.20;17.95;;;11.80;99.90;;;;;;5006339;28;20046;-70
2022/04/22 05:50:08;;;;;;;27.73;18.13;;;11.70;99.90;;;;;;5002606;28;20143;-67
2022/04/22 05:52:35;;;;;;;28.50;17.17;;;11.70;99.90;;;;;;5000210;28;20018;-68
2022/04/22 05:55:04;;;;;;;26.70;17.90;;;11.80;99.90;;;;;;4998743;28;20101;-68
2022/04/22 05:57:31;;;;;;;27.75;18.63;;;11.70;99.90;;;;;;4998869;28;20409;-67
2022/04/22 05:59:58;;;;;;;31.85;19.38;;;11.70;99.90;;;;;;5005638;28;20045;-68
2022/04/22 06:02:24;;;;;;;28.75;20.08;;;11.70;99.90;;;;;;5000917;28;20045;-68
2022/04/22 06:04:50;;;;;;;27.48;18.80;;;11.80;99.90;;;;;;4999382;28;20374;-68
2022/04/22 06:07:17;;;;;;;29.38;19.52;;;11.70;99.90;;;;;;5000215;28;20035;-67
2022/04/22 06:12:27;;;;;;;25.67;17.98;;;11.70;99.90;;;;;;5010074;28;20052;-68
2022/04/22 06:14:53;;;;;;;26.42;18.27;;;11.70;99.90;;;;;;5006205;28;20022;-68
2022/04/22 06:17:19;;;;;;;30.45;20.77;;;11.70;99.90;;;;;;4997827;28;20030;-70
2022/04/22 06:19:45;;;;;;;29.80;20.35;;;11.70;99.90;;;;;;4999637;28;20083;-68
2022/04/22 06:22:11;;;;;;;28.45;19.05;;;11.80;99.90;;;;;;5001437;28;20105;-68
2022/04/22 06:24:36;;;;;;;33.10;20.15;;;11.80;99.90;;;;;;5006002;28;20100;-68
2022/04/22 06:27:02;;;;;;;29.38;20.63;;;11.90;99.90;;;;;;5013132;28;20044;-69
2022/04/22 06:29:28;;;;;;;28.15;19.15;;;11.90;99.90;;;;;;5012986;28;20097;-68
2022/04/22 06:31:54;;;;;;;31.02;21.00;;;12.00;99.90;;;;;;5011639;28;20036;-68
2022/04/22 06:34:20;;;;;;;31.67;21.58;;;12.00;99.90;;;;;;5002037;28;20022;-68
2022/04/22 06:36:46;;;;;;;29.55;20.75;;;12.00;99.90;;;;;;5005261;28;20390;-69
2022/04/22 06:39:13;;;;;;;30.20;20.98;;;12.10;99.90;;;;;;5001189;28;20029;-68
2022/04/22 06:47:13;;;;;;;32.30;22.10;;;12.20;99.90;;;;;;5006337;28;20045;-70
2022/04/22 06:49:40;;;;;;;33.25;21.10;;;12.30;99.90;;;;;;5010726;28;20045;-68
2022/04/22 06:52:06;;;;;;;30.85;21.45;;;12.40;99.90;;;;;;4995222;28;20467;-68
2022/04/22 06:54:32;;;;;;;33.50;21.55;;;12.40;99.90;;;;;;4992124;28;20075;-68
2022/04/22 06:57:00;;;;;;;30.30;22.35;;;12.40;99.90;;;;;;4997009;28;20034;-68
2022/04/22 06:59:26;;;;;;;31.23;20.98;;;12.50;99.90;;;;;;5012179;28;20036;-68
2022/04/22 07:01:52;;;;;;;33.17;21.73;;;12.50;99.90;;;;;;5012724;28;20022;-70
2022/04/22 07:04:18;;;;;;;32.00;21.38;;;12.60;99.90;;;;;;5011532;28;20018;-68
2022/04/22 07:06:45;;;;;;;29.85;21.27;;;12.60;99.90;;;;;;5011798;28;20029;-68
2022/04/22 07:09:11;;;;;;;35.92;23.30;;;12.70;99.90;;;;;;5011515;28;20033;-68
2022/04/22 07:11:41;;;;;;;32.20;22.42;;;12.90;99.90;;;;;;5011491;28;20053;-69
2022/04/22 07:14:07;;;;;;;31.58;21.92;;;12.80;99.90;;;;;;5012069;28;20034;-68
2022/04/22 07:16:33;;;;;;;28.73;21.45;;;12.80;99.90;;;;;;5013776;28;20116;-69
2022/04/22 07:18:59;;;;;;;29.08;21.23;;;13.00;99.90;;;;;;5000103;28;20030;-68
2022/04/22 07:21:26;;;;;;;27.55;19.98;;;13.00;99.90;;;;;;5002441;28;20022;-68
2022/04/22 07:23:53;;;;;;;26.20;20.25;;;13.00;99.90;;;;;;5002967;28;20034;-68
2022/04/22 07:26:20;;;;;;;32.08;20.48;;;13.10;99.90;;;;;;5009073;28;20022;-69
2022/04/22 07:28:47;;;;;;;34.92;22.73;;;13.20;99.90;;;;;;5011503;28;20481;-69
2022/04/22 07:31:16;;;;;;;31.15;22.73;;;13.20;99.90;;;;;;4993864;28;20022;-69
2022/04/22 07:33:42;;;;;;;29.58;20.92;;;13.20;99.90;;;;;;5001732;28;20030;-68
2022/04/22 07:36:08;;;;;;;32.90;21.30;;;13.30;99.90;;;;;;5001843;28;20097;-68
2022/04/22 07:38:34;;;;;;;28.63;19.73;;;13.40;99.90;;;;;;5000712;28;20025;-70
2022/04/22 07:41:00;;;;;;;31.23;20.95;;;13.40;99.90;;;;;;5001266;28;20026;-70
2022/04/22 07:48:57;;;;;;;36.00;23.10;;;13.90;99.90;;;;;;5011535;28;20096;-70
2022/04/22 07:51:26;;;;;;;33.58;22.27;;;13.90;99.90;;;;;;5002317;28;20022;-70
2022/04/22 07:53:53;;;;;;;29.52;22.98;;;13.80;99.90;;;;;;5000440;28;20029;-70
2022/04/22 07:56:19;;;;;;;31.02;22.17;;;13.80;99.90;;;;;;5026719;28;20046;-70
2022/04/22 07:58:45;;;;;;;33.35;23.48;;;13.90;99.90;;;;;;4998908;28;20061;-70
2022/04/22 08:01:10;;;;;;;36.67;26.48;;;13.80;99.90;;;;;;5010873;28;20030;-70
2022/04/22 08:03:36;;;;;;;33.72;24.90;;;13.90;99.90;;;;;;5003256;28;20030;-70
2022/04/22 08:06:03;;;;;;;36.15;27.13;;;14.40;99.90;;;;;;5004438;28;20050;-70
2022/04/22 08:08:30;;;;;;;38.25;28.80;;;14.60;99.90;;;;;;5011409;28;20063;-69
2022/04/22 08:10:56;;;;;;;36.40;28.60;;;14.70;99.90;;;;;;5007617;28;20049;-69
2022/04/22 08:13:25;;;;;;;38.78;29.55;;;14.80;99.90;;;;;;5010202;28;20484;-69
2022/04/22 08:15:51;;;;;;;37.17;27.63;;;14.80;99.90;;;;;;5010847;28;20497;-70
2022/04/22 08:18:17;;;;;;;40.17;29.10;;;14.90;99.90;;;;;;5011150;28;20029;-70
2022/04/22 08:20:43;;;;;;;37.10;27.58;;;14.80;99.90;;;;;;5010256;28;20064;-69
2022/04/22 08:23:08;;;;;;;38.08;30.02;;;14.70;99.90;;;;;;5010908;28;20021;-69
2022/04/22 08:25:34;;;;;;;37.17;28.85;;;14.70;99.90;;;;;;5010505;28;20097;-69
2022/04/22 08:28:02;;;;;;;35.78;28.15;;;15.00;99.90;;;;;;5007392;28;20080;-69
2022/04/22 08:30:28;;;;;;;39.40;30.05;;;15.10;99.90;;;;;;5009042;28;20064;-70
2022/04/22 08:32:53;;;;;;;33.40;27.40;;;15.40;99.90;;;;;;5009676;28;20469;-70
2022/04/22 08:35:19;;;;;;;33.58;27.55;;;15.30;99.90;;;;;;5010436;28;20018;-70
2022/04/22 08:37:45;;;;;;;31.58;24.98;;;15.30;99.90;;;;;;4992250;28;20026;-70
2022/04/22 08:40:13;;;;;;;32.80;25.92;;;15.30;99.90;;;;;;4991751;28;20049;-70
2022/04/22 08:42:41;;;;;;;30.02;24.13;;;15.60;99.90;;;;;;5008734;28;20030;-70
2022/04/22 08:45:08;;;;;;;28.05;20.67;;;15.90;99.90;;;;;;5007062;28;20022;-69
2022/04/22 08:50:19;;;;;;;29.60;23.48;;;16.00;99.90;;;;;;5009801;28;20037;-70
2022/04/22 08:52:56;;;;;;;27.00;21.17;;;16.20;99.90;;;;;;5002797;28;20570;-69
2022/04/22 08:55:25;;;;;;;26.63;22.10;;;16.40;99.90;;;;;;4976139;28;20018;-70
2022/04/22 08:57:54;;;;;;;25.50;19.88;;;16.40;99.90;;;;;;4991606;28;20037;-70
2022/04/22 09:00:22;;;;;;;22.60;17.60;;;16.60;99.90;;;;;;4995239;28;20022;-70
2022/04/22 09:02:54;;;;;;;23.75;18.83;;;16.50;99.90;;;;;;4990556;28;20033;-69
2022/04/22 09:05:19;;;;;;;24.02;18.98;;;16.30;99.90;;;;;;4996829;28;20022;-70
2022/04/22 09:07:46;;;;;;;23.33;19.17;;;16.20;99.90;;;;;;5007131;28;20474;-69
2022/04/22 09:10:12;;;;;;;23.35;17.00;;;16.20;99.90;;;;;;4996624;28;20023;-70
2022/04/22 09:12:43;;;;;;;20.02;15.10;;;16.10;99.90;;;;;;5000312;28;20545;-69
2022/04/22 09:15:10;;;;;;;19.33;15.38;;;15.70;99.90;;;;;;5002718;28;20014;-69
2022/04/22 09:17:36;;;;;;;17.88;14.98;;;15.60;99.90;;;;;;5000404;28;20076;-69
2022/04/22 09:20:04;;;;;;;17.63;14.35;;;15.50;99.90;;;;;;5002619;28;20519;-70
2022/04/22 09:22:34;;;;;;;18.50;14.18;;;15.40;99.90;;;;;;5004310;28;20025;-69
2022/04/22 09:25:01;;;;;;;19.35;15.50;;;15.50;99.90;;;;;;5000263;28;20469;-69
2022/04/22 09:27:43;;;;;;;20.05;15.98;;;15.50;99.90;;;;;;4999326;28;20034;-69
2022/04/22 09:30:12;;;;;;;18.67;15.48;;;15.50;99.90;;;;;;4986252;28;20022;-70
2022/04/22 09:32:40;;;;;;;18.40;15.25;;;15.50;99.90;;;;;;5007337;28;20052;-69
2022/04/22 09:35:23;;;;;;;19.45;15.75;;;15.30;99.90;;;;;;5000325;28;20029;-69
2022/04/22 09:43:24;;;;;;;21.23;18.65;;;15.30;99.90;;;;;;5001623;28;20040;-69
2022/04/22 09:45:54;;;;;;;22.95;17.02;;;15.20;99.90;;;;;;4998270;28;20075;-70
2022/04/22 09:48:20;;;;;;;20.52;17.17;;;15.20;99.90;;;;;;4994062;28;20043;-69
2022/04/22 09:51:03;;;;;;;21.73;18.98;;;15.20;99.90;;;;;;4986588;28;20049;-69
2022/04/22 09:53:34;;;;;;;19.55;17.48;;;15.10;99.90;;;;;;4991436;28;20117;-70
2022/04/22 09:56:07;;;;;;;21.00;18.10;;;15.20;99.90;;;;;;4986671;28;20022;-69
2022/04/22 09:58:33;;;;;;;23.60;17.95;;;15.20;99.90;;;;;;5008361;28;20024;-70
2022/04/22 10:01:01;;;;;;;22.45;20.05;;;15.20;99.90;;;;;;5007977;28;20018;-70
2022/04/22 10:03:28;;;;;;;22.77;19.10;;;15.40;99.90;;;;;;5000307;28;20087;-69
2022/04/22 10:05:55;;;;;;;23.58;20.63;;;15.40;99.90;;;;;;5010736;28;20458;-69
2022/04/22 10:08:22;;;;;;;24.52;20.58;;;15.50;99.90;;;;;;4996710;28;20049;-70
2022/04/22 10:10:51;;;;;;;22.73;20.17;;;15.50;99.90;;;;;;4998136;28;20605;-69
2022/04/22 10:13:18;;;;;;;25.15;20.88;;;15.50;99.90;;;;;;5004897;28;20045;-70
2022/04/22 10:15:45;;;;;;;21.60;19.33;;;15.70;99.90;;;;;;4992020;28;20482;-69
2022/04/22 10:18:15;;;;;;;23.70;19.85;;;15.70;99.90;;;;;;5005984;28;20026;-70
2022/04/22 10:20:43;;;;;;;22.20;19.35;;;15.50;99.90;;;;;;5001832;28;20540;-70
2022/04/22 10:23:09;;;;;;;20.50;18.05;;;15.60;99.90;;;;;;4996647;28;20033;-70
2022/04/22 10:25:35;;;;;;;20.27;18.17;;;15.60;99.90;;;;;;4992822;28;20087;-70
2022/04/22 10:28:04;;;;;;;22.52;18.33;;;15.60;99.90;;;;;;4999227;28;20042;-69
2022/04/22 10:30:31;;;;;;;20.77;18.40;;;15.50;99.90;;;;;;4992232;28;20560;-70
2022/04/22 10:32:58;;;;;;;21.77;18.48;;;16.00;99.90;;;;;;4978873;28;20103;-70
2022/04/22 10:35:24;;;;;;;24.45;22.00;;;16.40;99.90;;;;;;5004186;28;20072;-71
2022/04/22 10:37:52;;;;;;;21.65;19.48;;;16.90;99.10;;;;;;5003195;28;20030;-70
2022/04/22 10:40:23;;;;;;;20.23;18.23;;;16.70;99.10;;;;;;4996905;28;20023;-70
2022/04/22 10:42:50;;;;;;;18.92;17.02;;;16.60;98.80;;;;;;5008557;28;20026;-70
2022/04/22 10:48:17;;;;;;;18.92;15.18;;;16.20;99.20;;;;;;5011596;28;20076;-69
2022/04/22 10:50:52;;;;;;;17.55;15.75;;;16.10;98.90;;;;;;4995200;28;20086;-71
2022/04/22 10:53:29;;;;;;;17.80;16.00;;;16.20;99.20;;;;;;5007403;28;20014;-71
2022/04/22 10:56:41;;;;;;;17.88;16.08;;;16.20;98.80;;;;;;4999082;28;20105;-71
2022/04/22 10:59:16;;;;;;;18.23;15.30;;;15.90;99.10;;;;;;5022153;28;20037;-71
2022/04/22 11:01:43;;;;;;;19.67;15.88;;;16.00;99.40;;;;;;5010889;28;20030;-71
2022/04/22 11:04:28;;;;;;;17.88;15.95;;;16.00;99.60;;;;;;4991294;28;20082;-71
2022/04/22 11:06:56;;;;;;;17.80;16.00;;;15.90;99.30;;;;;;4995319;28;20034;-71
2022/04/22 11:09:29;;;;;;;16.85;13.68;;;16.00;99.40;;;;;;5002651;28;20029;-70
2022/04/22 11:11:57;;;;;;;14.57;13.00;;;16.00;99.70;;;;;;4983172;28;20034;-70
2022/04/22 11:14:25;;;;;;;16.20;14.40;;;16.10;99.50;;;;;;4995113;28;20381;-69
2022/04/22 11:16:54;;;;;;;15.43;12.90;;;16.20;99.20;;;;;;4994055;28;20030;-72
2022/04/22 11:19:20;;;;;;;17.92;13.85;;;16.20;99.30;;;;;;5002543;28;20022;-71
2022/04/22 11:21:50;;;;;;;15.82;14.15;;;16.40;99.50;;;;;;5000026;28;20069;-71
2022/04/22 11:24:20;;;;;;;16.67;14.43;;;16.50;99.30;;;;;;5005432;28;20033;-72
2022/04/22 11:26:46;;;;;;;15.68;13.25;;;16.50;98.30;;;;;;4993907;28;20067;-71
2022/04/22 11:29:14;;;;;;;16.80;13.55;;;16.50;98.40;;;;;;4998526;28;20117;-71
2022/04/22 11:31:40;;;;;;;17.65;12.90;;;16.40;98.20;;;;;;5000721;28;20018;-72
2022/04/22 11:34:16;;;;;;;15.25;11.95;;;16.30;98.00;;;;;;4996819;28;20477;-70
2022/04/22 11:36:48;;;;;;;12.30;10.52;;;16.20;98.20;;;;;;5006801;28;20026;-71
2022/04/22 11:39:19;;;;;;;13.88;9.80;;;16.30;97.70;;;;;;4997401;28;20094;-71
2022/04/22 11:41:59;;;;;;;12.63;9.45;;;16.40;97.60;;;;;;4999885;28;20064;-71
2022/04/22 11:44:25;;;;;;;11.70;9.88;;;16.40;97.10;;;;;;5006576;28;20037;-70
2022/04/22 11:46:51;;;;;;;11.30;10.10;;;16.40;96.90;;;;;;5000748;28;20038;-70
2022/04/22 11:49:18;;;;;;;14.55;10.38;;;16.40;97.20;;;;;;4999697;28;20027;-71
2022/04/22 11:51:44;;;;;;;13.15;11.85;;;16.40;97.50;;;;;;5001194;28;20024;-71
2022/04/22 11:54:09;;;;;;;14.20;12.65;;;16.50;97.30;;;;;;4999460;28;20390;-72
2022/04/22 11:56:35;;;;;;;13.18;10.90;;;16.50;97.40;;;;;;5001416;28;20026;-71
2022/04/22 11:59:02;;;;;;;13.82;12.18;;;16.50;97.30;;;;;;5006476;28;20027;-71
2022/04/22 12:08:00;;;;;;;16.77;10.93;;;16.70;97.40;;;;;;5001301;28;20073;-71
2022/04/22 12:10:00;;;;;;;14.40;11.48;;;16.70;97.00;;;;;;5002196;28;20030;-71
2022/04/22 12:12:28;;;;;;;13.07;11.57;;;16.70;96.80;;;;;;5000966;28;20114;-71
2022/04/22 12:15:02;;;;;;;14.05;12.55;;;17.00;96.80;;;;;;4994228;28;20041;-71
2022/04/22 12:17:28;;;;;;;18.25;11.82;;;17.00;96.60;;;;;;4998357;28;20018;-71
2022/04/22 12:19:54;;;;;;;12.30;10.50;;;17.20;96.30;;;;;;4999631;28;20378;-70
2022/04/22 12:22:21;;;;;;;14.38;10.35;;;17.20;96.30;;;;;;4996442;28;20093;-70
2022/04/22 12:25:10;;;;;;;13.57;11.07;;;17.30;95.40;;;;;;5004265;28;20026;-70
2022/04/22 12:27:36;;;;;;;14.15;12.20;;;17.20;95.70;;;;;;4994273;28;20038;-70
2022/04/22 12:30:11;;;;;;;15.55;11.63;;;17.10;95.90;;;;;;5004106;28;20947;-70
2022/04/22 12:32:38;;;;;;;15.43;12.82;;;17.20;96.50;;;;;;5000932;28;20097;-71
2022/04/22 12:35:15;;;;;;;17.83;12.98;;;17.30;96.30;;;;;;5003654;28;20030;-71
2022/04/22 12:37:52;;;;;;;17.67;12.25;;;17.70;96.40;;;;;;5006832;28;20064;-70
2022/04/22 12:40:19;;;;;;;14.65;12.95;;;18.20;97.10;;;;;;5004336;28;20103;-71
2022/04/22 12:42:45;;;;;;;15.45;11.85;;;18.30;95.70;;;;;;5000915;28;20026;-70
2022/04/22 12:53:43;;;;;;;15.85;14.25;;;18.20;95.30;;;;;;5002631;28;20088;-70
2022/04/22 12:56:10;;;;;;;17.00;12.80;;;17.90;95.00;;;;;;5000478;28;20053;-71
2022/04/22 12:58:55;;;;;;;13.60;12.20;;;18.20;95.20;;;;;;5003383;28;20026;-71
2022/04/22 13:01:27;;;;;;;12.88;11.57;;;18.70;94.90;;;;;;4999997;28;20052;-70
2022/04/22 13:03:54;;;;;;;13.10;11.75;;;18.90;94.40;;;;;;5002077;28;20095;-70
2022/04/22 13:07:08;;;;;;;17.08;11.45;;;18.40;93.40;;;;;;5001993;28;20504;-71
2022/04/22 13:09:33;;;;;;;13.48;12.02;;;18.20;93.60;;;;;;5027997;28;20124;-71
2022/04/22 13:11:59;;;;;;;16.25;12.65;;;18.10;94.20;;;;;;5028220;28;20557;-71
2022/04/22 13:14:25;;;;;;;13.43;12.10;;;18.20;94.60;;;;;;5008018;28;20054;-72
2022/04/22 13:16:50;;;;;;;13.57;11.15;;;18.30;94.80;;;;;;4999743;28;20516;-72
2022/04/22 13:19:16;;;;;;;12.52;11.32;;;18.30;94.50;;;;;;5002417;28;20045;-72
2022/04/22 13:21:41;;;;;;;13.40;10.40;;;18.50;93.90;;;;;;5001082;28;20406;-72
2022/04/22 13:24:07;;;;;;;10.40;9.32;;;18.40;94.10;;;;;;4997472;28;20466;-72
2022/04/22 13:26:33;;;;;;;13.55;10.15;;;18.30;94.10;;;;;;5001842;28;20420;-72
2022/04/22 13:28:59;;;;;;;12.70;11.50;;;18.40;94.00;;;;;;5001368;28;20115;-72
2022/04/22 13:31:25;;;;;;;14.07;10.93;;;18.40;93.60;;;;;;5001827;28;20105;-72
2022/04/22 13:33:50;;;;;;;12.18;10.85;;;18.40;94.00;;;;;;5005029;28;20105;-71
2022/04/22 13:36:16;;;;;;;12.88;10.55;;;18.30;94.50;;;;;;4999576;28;20482;-72